createdAt,value
2019-04-30T00:03:30.766Z,4.20
2019-04-30T00:07:35.733Z,4.30
2019-04-30T00:11:39.435Z,4.30
2019-04-30T00:15:42.890Z,4.20
2019-04-30T00:19:50.496Z,4.10
2019-04-30T00:23:51.774Z,3.90
2019-04-30T00:27:55.944Z,3.80
2019-04-30T00:32:04.227Z,3.80
2019-04-30T00:36:05.367Z,3.70
2019-04-30T00:40:09.179Z,3.60
2019-04-30T00:44:15.035Z,3.60
2019-04-30T00:48:26.827Z,3.50
2019-04-30T00:52:25.310Z,3.40
2019-04-30T00:56:29.095Z,3.40
2019-04-30T01:00:35.258Z,3.30
2019-04-30T01:04:41.409Z,3.30
2019-04-30T01:08:46.126Z,3.20
2019-04-30T01:12:50.375Z,3.00
2019-04-30T01:16:54.474Z,3.10
2019-04-30T01:20:58.662Z,3.10
2019-04-30T01:25:09.059Z,3.10
2019-04-30T01:29:07.967Z,2.90
2019-04-30T01:33:11.714Z,2.90
2019-04-30T01:37:15.226Z,3.00
2019-04-30T01:41:20.282Z,2.80
2019-04-30T01:45:30.106Z,2.90
2019-04-30T01:49:41.578Z,2.80
2019-04-30T01:53:34.455Z,2.70
2019-04-30T01:57:42.455Z,2.60
2019-04-30T02:01:48.712Z,2.70
2019-04-30T02:05:52.258Z,2.70
2019-04-30T02:09:55.722Z,2.70
2019-04-30T02:13:59.242Z,2.70
2019-04-30T02:18:02.741Z,2.70
2019-04-30T02:22:06.174Z,2.70
2019-04-30T02:26:09.619Z,2.70
2019-04-30T02:30:14.638Z,2.80
2019-04-30T02:34:22.076Z,2.80
2019-04-30T02:38:32.323Z,2.90
2019-04-30T02:42:39.703Z,2.90
2019-04-30T02:46:44.121Z,2.80
2019-04-30T02:50:49.236Z,2.80
2019-04-30T02:54:55.700Z,2.90
2019-04-30T02:59:03.210Z,2.90
2019-04-30T03:03:04.355Z,2.90
2019-04-30T03:07:09.799Z,2.90
2019-04-30T03:11:13.407Z,2.80
2019-04-30T03:15:19.498Z,2.80
2019-04-30T03:19:29.333Z,2.80
2019-04-30T03:23:32.191Z,2.80
2019-04-30T03:27:35.655Z,2.60
2019-04-30T03:31:43.846Z,2.50
2019-04-30T03:35:47.632Z,2.50
2019-04-30T03:39:49.799Z,2.40
2019-04-30T03:43:53.240Z,2.30
2019-04-30T03:47:59.592Z,2.30
2019-04-30T03:52:02.123Z,2.20
2019-04-30T03:56:05.566Z,2.20
2019-04-30T04:00:11.091Z,2.30
2019-04-30T04:04:22.093Z,2.30
2019-04-30T04:08:38.955Z,2.30
2019-04-30T04:12:41.083Z,2.30
2019-04-30T04:16:44.578Z,2.20
2019-04-30T04:20:51.955Z,2.20
2019-04-30T04:24:53.535Z,2.10
2019-04-30T04:28:59.195Z,2.20
2019-04-30T04:33:02.145Z,2.40
2019-04-30T04:37:05.585Z,2.50
2019-04-30T04:41:10.391Z,2.50
2019-04-30T04:45:14.424Z,2.60
2019-04-30T04:49:19.973Z,2.70
2019-04-30T04:53:23.110Z,2.90
2019-04-30T04:57:26.901Z,3.10
2019-04-30T05:01:30.691Z,3.40
2019-04-30T05:05:34.609Z,4.00
2019-04-30T05:09:39.671Z,4.30
2019-04-30T05:13:43.289Z,4.50
2019-04-30T05:17:47.077Z,4.90
2019-04-30T05:21:51.697Z,5.20
2019-04-30T05:25:55.261Z,5.50
2019-04-30T05:29:59.568Z,5.70
2019-04-30T05:34:06.178Z,6.00
2019-04-30T05:38:09.324Z,6.20
2019-04-30T05:42:12.926Z,6.50
2019-04-30T05:46:16.360Z,6.70
2019-04-30T05:50:20.387Z,6.90
2019-04-30T05:54:24.347Z,7.00
2019-04-30T05:58:29.795Z,7.20
2019-04-30T06:02:34.075Z,7.30
2019-04-30T06:06:38.899Z,7.50
2019-04-30T06:10:44.183Z,7.70
2019-04-30T06:14:59.003Z,7.80
2019-04-30T06:19:02.470Z,8.00
2019-04-30T06:23:05.932Z,8.20
2019-04-30T06:27:10.873Z,8.40
2019-04-30T06:31:14.473Z,8.60
2019-04-30T06:35:19.360Z,8.80
2019-04-30T06:39:23.263Z,9.00
2019-04-30T06:43:28.590Z,9.20
2019-04-30T06:47:33.367Z,9.40
2019-04-30T06:51:38.942Z,9.60
2019-04-30T06:55:42.508Z,9.70
2019-04-30T06:59:45.961Z,9.70
2019-04-30T07:08:46.892Z,10.00
2019-04-30T07:12:58.985Z,10.10
2019-04-30T07:17:02.530Z,10.20
2019-04-30T07:21:06.049Z,10.30
2019-04-30T07:25:09.701Z,10.30
2019-04-30T07:29:13.143Z,10.50
2019-04-30T07:33:16.862Z,10.90
2019-04-30T07:37:24.359Z,11.00
2019-04-30T07:41:25.891Z,11.20
2019-04-30T07:45:31.962Z,11.40
2019-04-30T07:49:46.766Z,11.60
2019-04-30T07:53:40.658Z,11.70
2019-04-30T07:57:44.467Z,11.70
2019-04-30T08:02:03.249Z,11.80
2019-04-30T08:05:54.745Z,12.10
2019-04-30T08:09:58.991Z,12.30
2019-04-30T08:14:02.900Z,12.50
2019-04-30T08:18:08.602Z,12.50
2019-04-30T08:22:11.990Z,12.90
2019-04-30T08:26:18.773Z,12.80
2019-04-30T08:30:26.701Z,12.90
2019-04-30T08:34:29.218Z,13.10
2019-04-30T08:38:32.903Z,13.30
2019-04-30T08:42:38.392Z,13.40
2019-04-30T08:46:41.561Z,13.30
2019-04-30T08:50:46.636Z,13.60
2019-04-30T08:54:50.126Z,14.10
2019-04-30T08:58:54.931Z,13.90
2019-04-30T09:02:59.458Z,14.20
2019-04-30T09:07:03.112Z,14.40
2019-04-30T09:11:19.225Z,14.50
2019-04-30T09:15:13.510Z,14.40
2019-04-30T09:19:21.065Z,14.70
2019-04-30T09:23:21.776Z,14.50
2019-04-30T09:27:25.515Z,14.50
2019-04-30T09:31:29.777Z,14.40
2019-04-30T09:35:33.353Z,14.70
2019-04-30T09:39:36.810Z,15.10
2019-04-30T09:43:40.577Z,15.50
2019-04-30T09:47:44.311Z,15.80
2019-04-30T09:51:49.463Z,16.20
2019-04-30T09:55:53.228Z,16.20
2019-04-30T09:59:56.959Z,16.10
2019-04-30T10:04:00.853Z,16.90
2019-04-30T10:08:04.886Z,16.30
2019-04-30T10:12:09.979Z,15.80
2019-04-30T10:16:31.636Z,15.80
2019-04-30T10:20:45.809Z,15.80
2019-04-30T10:24:49.589Z,15.80
2019-04-30T10:28:53.246Z,16.30
2019-04-30T10:32:56.774Z,16.40
2019-04-30T10:37:02.937Z,17.10
2019-04-30T10:41:06.019Z,17.00
2019-04-30T10:45:09.963Z,17.30
2019-04-30T10:49:14.478Z,17.10
2019-04-30T10:53:17.922Z,17.40
2019-04-30T10:57:21.394Z,16.60
2019-04-30T11:01:24.849Z,16.70
2019-04-30T11:05:29.239Z,16.40
2019-04-30T11:09:34.538Z,16.60
2019-04-30T11:13:38.063Z,17.20
2019-04-30T11:17:41.640Z,17.00
2019-04-30T11:21:45.669Z,16.60
2019-04-30T11:25:51.066Z,17.00
2019-04-30T11:30:00.639Z,17.00
2019-04-30T11:34:01.221Z,17.00
2019-04-30T11:38:05.187Z,17.30
2019-04-30T11:42:08.734Z,17.60
2019-04-30T11:46:28.701Z,17.50
2019-04-30T11:50:32.312Z,17.50
2019-04-30T11:54:48.496Z,17.30
2019-04-30T11:58:41.323Z,17.10
2019-04-30T12:02:44.918Z,18.50
2019-04-30T12:06:48.386Z,17.50
2019-04-30T12:10:59.476Z,26.20
2019-04-30T12:15:03.399Z,20.50
2019-04-30T12:19:08.905Z,18.50
2019-04-30T12:23:12.062Z,18.10
2019-04-30T12:27:15.868Z,18.00
2019-04-30T12:31:19.332Z,18.00
2019-04-30T12:35:22.778Z,18.30
2019-04-30T12:39:26.229Z,18.30
2019-04-30T12:43:29.678Z,18.40
2019-04-30T12:47:34.783Z,18.40
2019-04-30T12:51:45.959Z,18.50
2019-04-30T12:55:51.730Z,18.70
2019-04-30T12:59:55.003Z,18.80
2019-04-30T13:04:01.230Z,18.90
2019-04-30T13:08:04.796Z,18.80
2019-04-30T13:12:10.396Z,18.90
2019-04-30T13:16:14.078Z,18.60
2019-04-30T13:20:21.724Z,18.20
2019-04-30T13:24:22.892Z,18.50
2019-04-30T13:28:28.366Z,19.00
2019-04-30T13:32:33.546Z,19.20
2019-04-30T13:36:37.010Z,19.00
2019-04-30T13:40:43.596Z,18.60
2019-04-30T13:44:49.177Z,18.90
2019-04-30T13:48:52.286Z,19.40
2019-04-30T13:52:55.726Z,19.50
2019-04-30T13:56:59.475Z,19.50
2019-04-30T14:01:02.924Z,19.40
2019-04-30T14:05:08.150Z,19.50
2019-04-30T14:09:16.175Z,19.80
2019-04-30T14:13:20.557Z,20.10
2019-04-30T14:17:24.318Z,20.00
2019-04-30T14:21:33.203Z,19.70
2019-04-30T14:25:33.374Z,19.60
2019-04-30T14:29:36.908Z,19.40
2019-04-30T14:33:40.635Z,18.90
2019-04-30T14:37:44.097Z,18.40
2019-04-30T14:41:51.167Z,18.20
2019-04-30T14:46:11.501Z,18.30
2019-04-30T14:50:18.612Z,18.10
2019-04-30T14:54:36.047Z,18.00
2019-04-30T14:58:47.162Z,18.20
2019-04-30T15:02:55.344Z,18.20
2019-04-30T15:06:58.858Z,18.00
2019-04-30T15:11:02.408Z,17.90
2019-04-30T15:15:09.042Z,17.90
2019-04-30T15:19:12.520Z,17.70
2019-04-30T15:23:30.475Z,17.60
2019-04-30T15:27:34.286Z,17.90
2019-04-30T15:31:39.438Z,18.10
2019-04-30T15:35:42.918Z,18.10
2019-04-30T15:39:46.607Z,18.40
2019-04-30T15:43:50.129Z,18.60
2019-04-30T15:47:53.872Z,18.50
2019-04-30T15:51:57.676Z,18.60
2019-04-30T15:56:01.134Z,18.30
2019-04-30T16:00:07.505Z,18.00
2019-04-30T16:04:12.641Z,17.80
2019-04-30T16:08:23.746Z,17.70
2019-04-30T16:12:48.603Z,17.60
2019-04-30T16:16:53.401Z,17.60
2019-04-30T16:20:56.849Z,17.70
2019-04-30T16:25:00.639Z,18.00
2019-04-30T16:29:04.794Z,18.10
2019-04-30T16:33:09.490Z,18.20
2019-04-30T16:37:13.354Z,18.30
2019-04-30T16:41:30.687Z,18.10
2019-04-30T16:45:22.055Z,18.00
2019-04-30T16:49:25.502Z,17.80
2019-04-30T16:53:28.958Z,17.70
2019-04-30T16:57:32.737Z,17.50
2019-04-30T17:01:36.703Z,17.50
2019-04-30T17:05:44.683Z,17.40
2019-04-30T17:10:08.854Z,17.20
2019-04-30T17:14:31.381Z,17.20
2019-04-30T17:18:35.222Z,17.00
2019-04-30T17:22:39.478Z,16.80
2019-04-30T17:26:42.977Z,16.60
2019-04-30T17:30:46.567Z,16.50
2019-04-30T17:34:50.277Z,16.50
2019-04-30T17:38:53.737Z,16.50
2019-04-30T17:42:57.193Z,16.40
2019-04-30T17:47:00.660Z,16.20
2019-04-30T17:51:04.427Z,16.00
2019-04-30T17:55:09.728Z,15.90
2019-04-30T17:59:12.815Z,15.80
2019-04-30T18:03:16.584Z,15.60
2019-04-30T18:07:20.109Z,15.50
2019-04-30T18:11:23.566Z,15.50
2019-04-30T18:15:28.652Z,15.40
2019-04-30T18:19:39.502Z,15.20
2019-04-30T18:23:50.334Z,15.00
2019-04-30T18:27:55.761Z,14.90
2019-04-30T18:31:59.889Z,14.80
2019-04-30T18:36:03.611Z,14.70
2019-04-30T18:40:09.627Z,14.50
2019-04-30T18:44:13.265Z,14.40
2019-04-30T18:48:16.729Z,14.20
2019-04-30T18:52:20.178Z,14.10
2019-04-30T18:56:23.654Z,14.00
2019-04-30T19:00:29.408Z,14.00
2019-04-30T19:04:32.972Z,13.90
2019-04-30T19:08:39.484Z,13.70
2019-04-30T19:12:45.102Z,13.60
2019-04-30T19:17:06.506Z,13.50
2019-04-30T19:21:10.937Z,13.50
2019-04-30T19:25:14.399Z,13.30
2019-04-30T19:29:18.188Z,13.30
2019-04-30T19:33:22.034Z,13.30
2019-04-30T19:37:25.821Z,13.20
2019-04-30T19:41:29.279Z,13.20
2019-04-30T19:45:32.790Z,13.10
2019-04-30T19:49:36.537Z,13.00
2019-04-30T19:53:39.998Z,12.90
2019-04-30T19:57:43.474Z,13.00
2019-04-30T20:01:48.742Z,13.00
2019-04-30T20:05:52.114Z,13.00
2019-04-30T20:10:01.089Z,13.00
2019-04-30T20:14:01.015Z,12.90
2019-04-30T20:18:12.079Z,12.90
2019-04-30T20:22:15.702Z,12.80
2019-04-30T20:26:19.512Z,12.80
2019-04-30T20:30:22.978Z,12.80
2019-04-30T20:34:26.438Z,12.70
2019-04-30T20:38:34.632Z,12.60
2019-04-30T20:42:39.992Z,12.60
2019-04-30T20:46:43.344Z,12.50
2019-04-30T20:50:47.645Z,12.50
2019-04-30T20:54:51.113Z,12.40
2019-04-30T20:58:58.616Z,12.40
2019-04-30T21:03:00.109Z,12.30
2019-04-30T21:07:03.549Z,12.20
2019-04-30T21:11:07.017Z,12.20
2019-04-30T21:15:10.545Z,12.10
2019-04-30T21:19:14.013Z,12.10
2019-04-30T21:23:19.456Z,12.00
2019-04-30T21:27:23.177Z,12.00
2019-04-30T21:31:31.263Z,12.00
2019-04-30T21:35:36.436Z,11.90
2019-04-30T21:39:39.969Z,11.90
2019-04-30T21:43:43.431Z,11.90
2019-04-30T21:47:56.105Z,11.80
2019-04-30T21:51:52.121Z,11.70
2019-04-30T21:55:55.577Z,11.70
2019-04-30T21:59:59.034Z,11.70
2019-04-30T22:04:02.489Z,11.60
2019-04-30T22:08:10.641Z,11.50
2019-04-30T22:12:14.094Z,11.50
2019-04-30T22:16:20.097Z,11.40
2019-04-30T22:20:23.415Z,11.30
2019-04-30T22:24:28.321Z,11.30
2019-04-30T22:28:32.056Z,11.20
2019-04-30T22:32:35.795Z,11.20
2019-04-30T22:36:40.913Z,11.10
2019-04-30T22:40:44.447Z,11.10
2019-04-30T22:44:49.382Z,11.00
2019-04-30T22:48:53.186Z,10.90
2019-04-30T22:52:56.707Z,10.90
2019-04-30T22:57:00.165Z,10.80
2019-04-30T23:01:11.309Z,10.80
2019-04-30T23:05:16.183Z,10.70
2019-04-30T23:09:19.697Z,10.60
2019-04-30T23:13:23.150Z,10.60
2019-04-30T23:17:26.601Z,10.50
2019-04-30T23:21:30.389Z,10.40
2019-04-30T23:25:33.850Z,10.40
2019-04-30T23:29:37.286Z,10.20
2019-04-30T23:33:40.815Z,10.10
2019-04-30T23:37:44.278Z,10.00
2019-04-30T23:41:47.740Z,9.90
2019-04-30T23:45:51.177Z,9.80
2019-04-30T23:49:54.946Z,9.70
2019-04-30T23:53:58.385Z,9.60
2019-04-30T23:58:02.122Z,9.50
